Time;durP1;ratioP1;P1;durP2;ratioP2;P2;SDS_P1;SDS_P2;PMS_P1;PMS_P2;Temp;Humidity;BMP_temperature;BMP_pressure;BME280_temperature;BME280_humidity;BME280_pressure;Samples;Min_cycle;Max_cycle;Signal;HPM_P1;HPM_P2
2023/07/18 00:00:18;;;;;;;7.25;5.45;;;19.70;99.90;;;;;;4992884;28;20070;-83
2023/07/18 00:02:44;;;;;;;11.20;5.70;;;19.70;99.90;;;;;;4992801;28;20034;-82
2023/07/18 00:05:14;;;;;;;11.07;6.28;;;19.60;99.90;;;;;;4993915;28;20018;-82
2023/07/18 00:07:41;;;;;;;8.88;5.53;;;19.70;99.90;;;;;;4992595;28;20018;-83
2023/07/18 00:10:08;;;;;;;12.30;6.35;;;19.60;99.90;;;;;;4992931;28;20030;-82
2023/07/18 00:12:38;;;;;;;9.85;6.03;;;19.60;99.90;;;;;;4993049;28;20032;-82
2023/07/18 00:15:06;;;;;;;10.13;5.07;;;19.60;99.90;;;;;;4992115;28;20060;-83
2023/07/18 00:17:33;;;;;;;12.70;6.38;;;19.50;99.90;;;;;;4993479;28;21658;-83
2023/07/18 00:19:59;;;;;;;9.20;5.93;;;19.50;99.90;;;;;;4992758;28;20023;-82
2023/07/18 00:22:25;;;;;;;9.13;5.57;;;19.40;99.90;;;;;;4993445;28;20906;-82
2023/07/18 00:24:51;;;;;;;7.03;5.40;;;19.40;99.90;;;;;;4992573;28;20050;-82
2023/07/18 00:27:16;;;;;;;9.57;6.07;;;19.30;99.90;;;;;;4990728;28;20742;-82
2023/07/18 00:29:42;;;;;;;9.80;6.18;;;19.30;99.90;;;;;;4992089;28;20452;-82
2023/07/18 00:32:08;;;;;;;8.93;5.63;;;19.20;99.90;;;;;;4993285;28;20034;-84
2023/07/18 00:34:34;;;;;;;10.95;6.10;;;19.20;99.90;;;;;;4993800;28;20044;-82
2023/07/18 00:36:59;;;;;;;9.32;5.45;;;19.20;99.90;;;;;;4992881;28;20026;-82
2023/07/18 00:39:25;;;;;;;9.23;5.57;;;19.20;99.90;;;;;;4991813;28;20149;-82
2023/07/18 00:41:52;;;;;;;10.43;5.45;;;19.20;99.90;;;;;;4992621;28;20121;-83
2023/07/18 00:44:17;;;;;;;11.27;5.95;;;19.20;99.90;;;;;;4992589;28;20027;-82
2023/07/18 00:46:43;;;;;;;9.43;5.55;;;19.20;99.90;;;;;;4990901;28;20045;-83
2023/07/18 00:49:10;;;;;;;8.20;5.45;;;19.20;99.90;;;;;;4992189;28;20030;-83
2023/07/18 00:51:35;;;;;;;8.50;5.97;;;19.20;99.90;;;;;;4991490;28;20396;-82
2023/07/18 00:54:01;;;;;;;10.27;5.97;;;19.20;99.90;;;;;;4992110;28;20035;-83
2023/07/18 00:56:27;;;;;;;9.63;5.40;;;19.10;99.90;;;;;;4990984;28;20042;-81
2023/07/18 00:58:53;;;;;;;10.95;5.40;;;19.10;99.90;;;;;;4992919;28;20026;-82
2023/07/18 01:01:19;;;;;;;9.07;5.45;;;19.10;99.90;;;;;;4992334;28;20690;-84
2023/07/18 01:03:44;;;;;;;9.98;6.18;;;19.10;99.90;;;;;;4992363;28;20022;-83
2023/07/18 01:06:11;;;;;;;8.18;5.70;;;19.10;99.90;;;;;;4991482;28;20031;-83
2023/07/18 01:08:39;;;;;;;7.93;5.28;;;19.10;99.90;;;;;;4991067;28;20032;-82
2023/07/18 01:11:05;;;;;;;9.38;5.75;;;19.10;99.90;;;;;;4990951;28;20026;-83
2023/07/18 01:13:31;;;;;;;8.18;5.03;;;19.00;99.90;;;;;;4990539;28;20505;-82
2023/07/18 01:15:56;;;;;;;7.97;5.45;;;19.00;99.90;;;;;;4990183;28;20057;-83
2023/07/18 01:18:22;;;;;;;8.00;5.28;;;19.00;99.90;;;;;;4992399;28;20038;-83
2023/07/18 01:20:48;;;;;;;9.45;5.20;;;18.90;99.90;;;;;;4993993;28;20524;-82
2023/07/18 01:23:14;;;;;;;8.70;6.30;;;18.90;99.90;;;;;;4990954;28;20388;-82
2023/07/18 01:25:40;;;;;;;9.68;6.05;;;18.80;99.90;;;;;;4992888;28;20046;-82
2023/07/18 01:28:06;;;;;;;11.55;5.80;;;18.80;99.90;;;;;;4990611;28;20034;-82
2023/07/18 01:30:32;;;;;;;10.65;6.13;;;18.70;99.90;;;;;;4992207;28;20037;-82
2023/07/18 01:32:58;;;;;;;14.30;6.25;;;18.70;99.90;;;;;;4993514;28;20049;-82
2023/07/18 01:35:25;;;;;;;10.00;5.95;;;18.60;99.90;;;;;;4995081;28;20093;-83
2023/07/18 01:37:53;;;;;;;11.32;5.72;;;18.50;99.90;;;;;;4992544;28;20034;-83
2023/07/18 01:40:20;;;;;;;13.32;6.38;;;18.50;99.90;;;;;;4992147;28;20026;-82
2023/07/18 01:42:48;;;;;;;10.77;5.93;;;18.40;99.90;;;;;;4992074;28;20026;-83
2023/07/18 01:45:14;;;;;;;11.80;6.15;;;18.30;99.90;;;;;;4992014;28;20156;-82
2023/07/18 01:47:41;;;;;;;8.65;6.13;;;18.30;99.90;;;;;;4991427;28;20105;-82
2023/07/18 01:50:07;;;;;;;9.48;6.00;;;18.20;99.90;;;;;;4993347;28;20125;-83
2023/07/18 01:52:34;;;;;;;10.80;5.82;;;18.20;99.90;;;;;;4991641;28;20030;-83
2023/07/18 01:55:02;;;;;;;10.65;5.85;;;18.10;99.90;;;;;;4992751;28;20053;-83
2023/07/18 01:57:30;;;;;;;8.52;5.85;;;18.00;99.90;;;;;;4991519;28;20033;-82
2023/07/18 01:59:58;;;;;;;11.18;6.22;;;18.00;99.90;;;;;;4996790;28;20018;-82
2023/07/18 02:02:24;;;;;;;8.57;6.03;;;17.90;99.90;;;;;;4996136;28;20042;-82
2023/07/18 02:04:50;;;;;;;10.50;6.28;;;17.90;99.90;;;;;;4995477;28;20037;-81
2023/07/18 02:07:16;;;;;;;9.60;6.22;;;17.80;99.90;;;;;;4995693;28;20038;-83
2023/07/18 02:09:41;;;;;;;10.15;5.90;;;17.80;99.90;;;;;;4994795;28;20027;-82
2023/07/18 02:12:08;;;;;;;11.00;5.93;;;17.80;99.90;;;;;;4994918;28;20041;-82
2023/07/18 02:14:36;;;;;;;9.95;6.00;;;17.70;99.90;;;;;;4996034;28;20089;-82
2023/07/18 02:17:02;;;;;;;12.48;5.60;;;17.70;99.90;;;;;;4992843;28;20057;-82
2023/07/18 02:19:27;;;;;;;10.35;5.80;;;17.70;99.90;;;;;;4993735;28;20065;-83
2023/07/18 02:21:53;;;;;;;9.65;5.97;;;17.60;99.90;;;;;;4993605;28;20140;-83
2023/07/18 02:24:19;;;;;;;9.48;5.50;;;17.60;99.90;;;;;;4993393;28;20030;-82
2023/07/18 02:26:44;;;;;;;11.68;5.75;;;17.50;99.90;;;;;;4992692;28;20508;-83
2023/07/18 02:29:10;;;;;;;10.30;5.22;;;17.50;99.90;;;;;;4992027;28;20041;-82
2023/07/18 02:31:35;;;;;;;9.75;5.75;;;17.50;99.90;;;;;;4993956;28;20032;-82
2023/07/18 02:34:01;;;;;;;10.23;5.40;;;17.40;99.90;;;;;;4993882;28;20033;-82
2023/07/18 02:36:28;;;;;;;15.75;6.05;;;17.40;99.90;;;;;;4992983;28;21102;-82
2023/07/18 02:38:53;;;;;;;12.68;6.30;;;17.30;99.90;;;;;;4994445;28;20160;-82
2023/07/18 02:41:19;;;;;;;11.93;5.85;;;17.30;99.90;;;;;;4993336;28;20543;-82
2023/07/18 02:43:44;;;;;;;14.00;5.90;;;17.30;99.90;;;;;;4993429;28;20029;-82
2023/07/18 02:46:11;;;;;;;12.93;6.38;;;17.20;99.90;;;;;;4993268;28;20034;-82
2023/07/18 02:48:37;;;;;;;10.68;5.78;;;17.20;99.90;;;;;;4992735;28;20515;-82
2023/07/18 02:51:02;;;;;;;8.82;5.60;;;17.20;99.90;;;;;;4991799;28;20101;-81
2023/07/18 02:53:28;;;;;;;10.18;5.68;;;17.20;99.90;;;;;;4992490;28;20164;-82
2023/07/18 02:55:54;;;;;;;8.73;5.20;;;17.10;99.90;;;;;;4991383;28;20037;-83
2023/07/18 02:58:20;;;;;;;11.77;6.88;;;17.10;99.90;;;;;;4992716;28;20029;-83
2023/07/18 03:00:46;;;;;;;10.20;5.95;;;17.00;99.90;;;;;;4992677;28;20876;-82
2023/07/18 03:03:12;;;;;;;11.35;5.75;;;17.00;99.90;;;;;;4990180;28;20027;-83
2023/07/18 03:05:38;;;;;;;8.75;6.18;;;17.00;99.90;;;;;;4990615;28;20412;-83
2023/07/18 03:08:04;;;;;;;11.60;6.55;;;17.00;99.90;;;;;;4989810;28;20022;-82
2023/07/18 03:10:30;;;;;;;11.43;6.30;;;16.90;99.90;;;;;;4989042;28;20488;-82
2023/07/18 03:12:56;;;;;;;9.50;6.32;;;16.90;99.90;;;;;;4993429;28;20116;-83
2023/07/18 03:15:21;;;;;;;10.27;5.78;;;16.80;99.90;;;;;;4993844;28;20511;-82
2023/07/18 03:17:47;;;;;;;13.70;6.22;;;16.80;99.90;;;;;;4991411;28;20070;-82
2023/07/18 03:20:19;;;;;;;7.43;5.97;;;16.80;99.90;;;;;;4990611;28;21440;-82
2023/07/18 03:22:49;;;;;;;10.68;5.88;;;16.70;99.90;;;;;;4990166;28;20034;-82
2023/07/18 03:25:17;;;;;;;13.07;6.55;;;16.70;99.90;;;;;;4991863;28;20065;-81
2023/07/18 03:27:43;;;;;;;11.10;6.25;;;16.70;99.90;;;;;;4992754;28;20611;-82
2023/07/18 03:30:12;;;;;;;11.13;6.22;;;16.70;99.90;;;;;;4994184;28;20032;-83
2023/07/18 03:32:39;;;;;;;9.88;5.70;;;16.70;99.90;;;;;;4992619;28;20034;-82
2023/07/18 03:35:09;;;;;;;16.90;6.88;;;16.70;99.90;;;;;;4993691;28;20102;-82
2023/07/18 03:37:35;;;;;;;8.70;5.90;;;16.70;99.90;;;;;;4993201;28;20042;-82
2023/07/18 03:40:01;;;;;;;12.23;6.40;;;16.60;99.90;;;;;;4994019;28;20022;-82
2023/07/18 03:42:27;;;;;;;12.55;6.28;;;16.60;99.90;;;;;;4992523;28;20018;-82
2023/07/18 03:44:52;;;;;;;10.95;6.22;;;16.60;99.90;;;;;;4994677;28;20031;-83
2023/07/18 03:47:18;;;;;;;8.63;6.40;;;16.60;99.90;;;;;;4993054;28;20034;-84
2023/07/18 03:49:44;;;;;;;12.70;6.32;;;16.60;99.90;;;;;;4993137;28;20082;-82
2023/07/18 03:52:10;;;;;;;11.48;6.10;;;16.50;99.90;;;;;;4992361;28;20030;-83
2023/07/18 03:54:36;;;;;;;15.05;6.57;;;16.50;99.90;;;;;;4993148;28;20019;-82
2023/07/18 03:57:01;;;;;;;9.63;6.22;;;16.50;99.90;;;;;;4993681;28;20093;-82
2023/07/18 03:59:27;;;;;;;12.05;6.25;;;16.50;99.90;;;;;;4994364;28;20058;-83
2023/07/18 04:01:53;;;;;;;11.75;6.47;;;16.50;99.90;;;;;;4993607;28;20034;-82
2023/07/18 04:04:18;;;;;;;9.50;6.13;;;16.50;99.90;;;;;;4992534;28;20091;-82
2023/07/18 04:06:44;;;;;;;12.35;6.82;;;16.50;99.90;;;;;;4988995;28;20088;-73
2023/07/18 04:09:10;;;;;;;9.43;6.30;;;16.50;99.90;;;;;;4986910;28;20720;-73
2023/07/18 04:11:36;;;;;;;10.45;6.75;;;16.40;99.90;;;;;;4985987;28;20477;-73
2023/07/18 04:14:02;;;;;;;9.88;6.45;;;16.40;99.90;;;;;;4987224;28;20038;-73
2023/07/18 04:16:28;;;;;;;12.07;7.07;;;16.40;99.90;;;;;;4985558;28;20926;-73
2023/07/18 04:18:53;;;;;;;9.95;6.00;;;16.40;99.90;;;;;;4986827;28;20105;-73
2023/07/18 04:21:19;;;;;;;9.60;6.22;;;16.40;99.90;;;;;;4985516;28;20058;-74
2023/07/18 04:23:44;;;;;;;11.05;6.35;;;16.40;99.90;;;;;;4984647;28;20077;-73
2023/07/18 04:26:12;;;;;;;12.40;5.60;;;16.50;99.90;;;;;;4985657;28;20057;-73
2023/07/18 04:28:38;;;;;;;10.27;6.47;;;16.50;99.90;;;;;;4985019;28;20495;-73
2023/07/18 04:31:04;;;;;;;10.05;6.50;;;16.50;99.90;;;;;;4984168;28;20030;-73
2023/07/18 04:33:34;;;;;;;10.73;6.15;;;16.60;99.90;;;;;;4983530;28;20031;-73
2023/07/18 04:36:00;;;;;;;11.85;6.22;;;16.60;99.90;;;;;;4983754;28;20492;-72
2023/07/18 04:38:26;;;;;;;9.73;5.95;;;16.80;99.90;;;;;;4984279;28;20148;-71
2023/07/18 04:40:52;;;;;;;15.48;6.47;;;16.80;99.90;;;;;;4985947;28;20029;-74
2023/07/18 04:43:18;;;;;;;10.38;6.32;;;16.90;99.90;;;;;;4984040;28;20096;-73
2023/07/18 04:45:44;;;;;;;11.65;6.72;;;16.90;99.90;;;;;;4983225;28;20105;-72
2023/07/18 04:48:14;;;;;;;10.35;6.30;;;17.00;99.90;;;;;;4980039;28;20022;-73
2023/07/18 04:50:41;;;;;;;11.75;6.75;;;17.00;99.90;;;;;;4982076;28;20146;-73
2023/07/18 04:53:08;;;;;;;12.25;6.85;;;17.10;99.90;;;;;;4983674;28;20042;-74
2023/07/18 04:55:34;;;;;;;10.95;6.90;;;17.10;99.90;;;;;;4982530;28;20382;-82
2023/07/18 04:58:01;;;;;;;12.23;6.82;;;17.20;99.90;;;;;;4984248;28;20038;-73
2023/07/18 05:00:28;;;;;;;9.98;6.07;;;17.20;99.90;;;;;;4983346;28;20105;-74
2023/07/18 05:02:53;;;;;;;9.70;6.30;;;17.20;99.90;;;;;;4985907;28;20039;-73
2023/07/18 05:05:19;;;;;;;15.27;6.85;;;17.20;99.90;;;;;;4985186;28;20026;-73
2023/07/18 05:07:47;;;;;;;10.43;6.53;;;17.30;99.90;;;;;;4985202;28;20031;-73
2023/07/18 05:10:15;;;;;;;10.95;6.22;;;17.30;99.90;;;;;;4984334;28;20101;-73
2023/07/18 05:12:40;;;;;;;12.52;7.63;;;17.40;99.90;;;;;;4983453;28;20037;-73
2023/07/18 05:15:07;;;;;;;11.10;6.85;;;17.50;99.90;;;;;;4985382;28;20038;-73
2023/07/18 05:17:32;;;;;;;10.20;6.63;;;17.60;99.90;;;;;;4980463;28;20090;-73
2023/07/18 05:19:58;;;;;;;10.65;6.45;;;17.70;99.90;;;;;;4984685;28;20030;-73
2023/07/18 05:22:23;;;;;;;12.65;7.47;;;17.80;99.90;;;;;;4981813;28;20595;-73
2023/07/18 05:24:49;;;;;;;10.57;6.30;;;17.90;99.90;;;;;;4983513;28;20501;-74
2023/07/18 05:27:14;;;;;;;9.73;7.07;;;17.90;99.90;;;;;;4982004;28;20088;-73
2023/07/18 05:29:40;;;;;;;8.73;6.32;;;18.10;99.90;;;;;;4983529;28;20786;-74
2023/07/18 05:32:06;;;;;;;10.25;6.40;;;18.20;99.90;;;;;;4981924;28;21529;-73
2023/07/18 05:34:35;;;;;;;12.65;7.00;;;18.30;99.90;;;;;;4984327;28;20033;-73
2023/07/18 05:37:01;;;;;;;10.93;6.68;;;18.40;99.90;;;;;;4977397;28;20061;-74
2023/07/18 05:39:29;;;;;;;9.88;6.95;;;18.40;99.90;;;;;;4977685;28;20113;-73
2023/07/18 05:41:55;;;;;;;15.35;6.65;;;18.60;99.90;;;;;;4979395;28;20056;-73
2023/07/18 05:44:21;;;;;;;14.55;6.20;;;18.70;99.90;;;;;;4979668;28;20793;-73
2023/07/18 05:46:46;;;;;;;10.35;5.90;;;18.80;99.90;;;;;;4978068;28;20030;-73
2023/07/18 05:49:12;;;;;;;11.88;6.32;;;19.00;99.90;;;;;;4978370;28;20026;-73
2023/07/18 05:51:38;;;;;;;9.55;6.10;;;19.20;99.90;;;;;;4976358;28;20113;-73
2023/07/18 05:54:04;;;;;;;12.13;6.22;;;19.40;99.90;;;;;;4978221;28;20030;-73
2023/07/18 05:56:31;;;;;;;10.25;6.78;;;19.50;99.90;;;;;;4977777;28;20041;-73
2023/07/18 05:58:56;;;;;;;13.75;5.57;;;19.60;99.90;;;;;;4977971;28;20122;-73
2023/07/18 06:01:22;;;;;;;11.63;6.10;;;19.70;99.90;;;;;;4977567;28;20030;-73
2023/07/18 06:03:48;;;;;;;11.05;6.30;;;19.80;99.90;;;;;;4978433;28;20030;-73
2023/07/18 06:06:15;;;;;;;14.10;6.72;;;19.90;99.90;;;;;;4976753;28;20140;-74
2023/07/18 06:08:41;;;;;;;8.27;6.00;;;20.00;99.90;;;;;;4987920;28;20084;-73
2023/07/18 06:11:06;;;;;;;10.50;6.10;;;20.20;99.90;;;;;;4987827;28;21354;-73
2023/07/18 06:13:32;;;;;;;8.75;5.32;;;20.30;99.90;;;;;;4987798;28;20472;-73
2023/07/18 06:15:57;;;;;;;11.90;6.20;;;20.40;99.90;;;;;;4986264;28;20088;-73
2023/07/18 06:18:23;;;;;;;11.75;6.13;;;20.50;99.90;;;;;;4986315;28;20019;-82
2023/07/18 06:20:49;;;;;;;13.23;6.00;;;20.70;99.90;;;;;;4992024;28;20030;-82
2023/07/18 06:23:15;;;;;;;13.23;5.72;;;20.80;99.90;;;;;;4985867;28;20027;-83
2023/07/18 06:25:41;;;;;;;14.02;5.80;;;20.90;99.90;;;;;;4985154;28;20034;-82
2023/07/18 06:28:07;;;;;;;10.82;5.93;;;21.00;99.90;;;;;;4988740;28;20026;-82
2023/07/18 06:30:33;;;;;;;8.43;5.25;;;21.10;99.90;;;;;;4985542;28;20033;-83
2023/07/18 06:32:59;;;;;;;12.05;5.75;;;21.20;99.90;;;;;;4986396;28;20034;-83
2023/07/18 06:35:24;;;;;;;13.93;6.20;;;21.30;99.90;;;;;;4987556;28;20030;-82
2023/07/18 06:37:50;;;;;;;8.63;5.10;;;21.40;99.90;;;;;;4984469;28;20025;-83
2023/07/18 06:40:16;;;;;;;15.75;5.00;;;21.50;99.90;;;;;;4986119;28;20042;-82
2023/07/18 06:42:42;;;;;;;10.98;4.40;;;21.60;99.90;;;;;;4984621;28;20049;-82
2023/07/18 06:45:08;;;;;;;7.60;3.95;;;21.80;99.90;;;;;;4985251;28;20032;-83
2023/07/18 06:47:34;;;;;;;11.77;4.10;;;21.90;99.90;;;;;;4984086;28;20034;-82
2023/07/18 06:50:00;;;;;;;9.15;3.95;;;22.00;99.90;;;;;;4986683;28;20026;-83
2023/07/18 06:52:26;;;;;;;10.75;3.92;;;22.10;99.90;;;;;;4986919;28;20471;-82
2023/07/18 06:54:54;;;;;;;14.73;4.07;;;22.20;99.90;;;;;;4984518;28;20520;-83
2023/07/18 06:57:19;;;;;;;12.65;4.25;;;22.30;99.90;;;;;;4987766;28;20018;-82
2023/07/18 06:59:45;;;;;;;10.20;4.47;;;22.40;99.90;;;;;;4992053;28;20081;-82
2023/07/18 07:02:11;;;;;;;8.20;3.30;;;22.60;99.90;;;;;;4993552;28;20037;-82
2023/07/18 07:04:39;;;;;;;7.50;3.25;;;22.70;99.90;;;;;;4992712;28;20460;-82
2023/07/18 07:07:08;;;;;;;9.02;2.95;;;22.70;99.90;;;;;;4991840;28;20106;-82
2023/07/18 07:09:34;;;;;;;5.72;3.10;;;22.90;99.90;;;;;;4989133;28;20157;-82
2023/07/18 07:12:00;;;;;;;9.00;2.90;;;22.90;99.90;;;;;;4990856;28;20466;-82
2023/07/18 07:14:26;;;;;;;9.52;3.63;;;23.00;99.90;;;;;;4992178;28;20035;-83
2023/07/18 07:16:51;;;;;;;8.73;3.22;;;23.10;99.90;;;;;;4991102;28;20041;-83
2023/07/18 07:19:17;;;;;;;7.55;3.33;;;23.20;99.90;;;;;;4992294;28;20164;-84
2023/07/18 07:21:43;;;;;;;6.32;3.08;;;23.20;99.90;;;;;;4991302;28;20088;-82
2023/07/18 07:24:09;;;;;;;10.48;3.92;;;23.30;99.90;;;;;;4992519;28;20092;-83
2023/07/18 07:26:37;;;;;;;11.05;4.00;;;23.30;99.90;;;;;;4990011;28;20056;-82
2023/07/18 07:29:04;;;;;;;9.95;3.45;;;23.40;99.90;;;;;;4991130;28;20076;-83
2023/07/18 07:31:33;;;;;;;6.90;3.28;;;23.40;99.90;;;;;;4992049;28;20870;-82
2023/07/18 07:33:58;;;;;;;8.93;3.38;;;23.50;99.90;;;;;;4991497;28;20026;-82
2023/07/18 07:36:24;;;;;;;7.72;3.80;;;23.60;99.90;;;;;;4984929;28;20508;-82
2023/07/18 07:38:49;;;;;;;9.00;3.53;;;23.60;99.90;;;;;;4985276;28;20022;-82
2023/07/18 07:41:15;;;;;;;8.50;3.20;;;23.70;99.90;;;;;;4988284;28;20037;-82
2023/07/18 07:43:41;;;;;;;8.48;3.20;;;23.70;99.90;;;;;;4991932;28;20073;-83
2023/07/18 07:46:07;;;;;;;7.47;3.63;;;23.70;99.90;;;;;;4993775;28;20065;-82
2023/07/18 07:48:32;;;;;;;7.55;3.50;;;23.70;99.90;;;;;;4990845;28;20022;-83
2023/07/18 07:50:59;;;;;;;11.90;3.92;;;23.80;99.90;;;;;;4991853;28;20041;-82
2023/07/18 07:53:26;;;;;;;9.75;3.58;;;23.80;99.90;;;;;;4993076;28;20026;-82
2023/07/18 07:55:52;;;;;;;7.25;3.90;;;23.90;99.90;;;;;;4991085;28;20062;-83
2023/07/18 07:58:17;;;;;;;7.60;3.70;;;23.90;99.90;;;;;;4992533;28;20056;-82
2023/07/18 08:00:43;;;;;;;9.30;3.42;;;24.00;99.90;;;;;;4990940;28;20054;-82
2023/07/18 08:03:09;;;;;;;9.07;3.58;;;24.00;99.90;;;;;;4992256;28;20491;-82
2023/07/18 08:05:34;;;;;;;6.63;3.03;;;24.10;99.90;;;;;;4993606;28;20010;-83
2023/07/18 08:08:00;;;;;;;8.80;3.35;;;24.10;99.90;;;;;;4990364;28;20035;-83
2023/07/18 08:10:25;;;;;;;8.45;3.78;;;24.10;99.90;;;;;;4990741;28;20030;-83
2023/07/18 08:12:51;;;;;;;7.38;2.90;;;24.20;99.90;;;;;;4990842;28;20062;-83
2023/07/18 08:15:17;;;;;;;9.65;4.10;;;24.20;99.90;;;;;;4991238;28;20040;-82
2023/07/18 08:17:42;;;;;;;6.90;3.33;;;24.30;99.90;;;;;;4987425;28;20022;-74
2023/07/18 08:20:08;;;;;;;6.53;3.80;;;24.30;99.90;;;;;;4988533;28;20120;-82
2023/07/18 08:22:34;;;;;;;8.50;3.15;;;24.30;99.90;;;;;;4989386;28;20112;-83
2023/07/18 08:25:01;;;;;;;6.38;3.13;;;24.40;99.90;;;;;;4990437;28;20458;-82
2023/07/18 08:27:26;;;;;;;6.80;3.42;;;24.50;99.90;;;;;;4991371;28;20497;-83
2023/07/18 08:29:52;;;;;;;8.93;3.55;;;24.60;99.90;;;;;;4989316;28;20065;-83
2023/07/18 08:32:17;;;;;;;7.32;3.30;;;24.60;99.90;;;;;;4990399;28;20777;-82
2023/07/18 08:34:43;;;;;;;10.27;3.40;;;24.70;99.90;;;;;;4989366;28;20107;-84
2023/07/18 08:37:09;;;;;;;8.32;3.70;;;24.70;99.90;;;;;;4991439;28;20030;-83
2023/07/18 08:39:36;;;;;;;8.52;3.78;;;24.70;99.90;;;;;;4988863;28;21056;-83
2023/07/18 08:42:04;;;;;;;6.28;3.90;;;24.70;99.90;;;;;;4991423;28;20761;-83
2023/07/18 08:44:31;;;;;;;7.22;3.85;;;24.70;99.90;;;;;;4992475;28;20041;-84
2023/07/18 08:47:00;;;;;;;8.88;3.72;;;24.80;99.90;;;;;;4990155;28;20030;-82
2023/07/18 08:49:28;;;;;;;8.15;4.00;;;24.90;99.90;;;;;;4989722;28;20030;-82
2023/07/18 08:51:54;;;;;;;13.90;4.63;;;24.90;99.90;;;;;;4990499;28;20052;-85
2023/07/18 08:54:19;;;;;;;9.90;4.20;;;24.90;99.90;;;;;;4990837;28;20045;-82
2023/07/18 08:56:46;;;;;;;6.63;3.72;;;25.00;99.90;;;;;;4988503;28;20030;-83
2023/07/18 08:59:12;;;;;;;6.82;3.30;;;25.10;99.90;;;;;;4990246;28;20117;-82
2023/07/18 09:01:51;;;;;;;10.38;3.63;;;25.10;99.90;;;;;;4990148;28;20038;-83
2023/07/18 09:04:18;;;;;;;7.20;3.95;;;25.30;99.90;;;;;;4989763;28;20027;-83
2023/07/18 09:06:49;;;;;;;8.02;4.05;;;25.30;99.90;;;;;;4989887;28;20045;-83
2023/07/18 09:09:17;;;;;;;9.18;4.22;;;25.40;99.90;;;;;;4993606;28;20021;-84
2023/07/18 09:11:59;;;;;;;9.40;4.32;;;25.40;99.90;;;;;;4993813;28;20057;-84
2023/07/18 09:14:27;;;;;;;9.48;4.32;;;25.50;99.90;;;;;;4994208;28;20030;-84
2023/07/18 09:16:54;;;;;;;12.57;4.60;;;25.60;99.90;;;;;;4993553;28;20054;-84
2023/07/18 09:19:34;;;;;;;7.78;4.55;;;25.80;99.90;;;;;;4994229;28;20018;-83
2023/07/18 09:22:00;;;;;;;10.48;4.72;;;25.90;99.90;;;;;;4993002;28;20027;-82
2023/07/18 09:24:32;;;;;;;8.80;3.88;;;26.00;99.90;;;;;;4994561;28;20038;-83
2023/07/18 09:26:57;;;;;;;7.13;3.90;;;26.00;99.90;;;;;;4993014;28;20038;-82
2023/07/18 09:29:25;;;;;;;9.32;3.78;;;26.10;99.90;;;;;;4992855;28;20026;-83
2023/07/18 09:31:51;;;;;;;7.07;4.22;;;26.20;99.90;;;;;;4988853;28;20039;-84
2023/07/18 09:34:18;;;;;;;10.05;4.35;;;26.40;99.90;;;;;;4991529;28;20102;-83
2023/07/18 09:37:03;;;;;;;6.72;3.95;;;26.50;99.90;;;;;;4991944;28;20072;-83
2023/07/18 09:39:29;;;;;;;8.52;4.10;;;26.70;99.90;;;;;;4994255;28;20030;-83
2023/07/18 09:41:56;;;;;;;8.35;4.28;;;27.00;99.90;;;;;;4993813;28;20356;-83
2023/07/18 09:44:25;;;;;;;5.90;3.80;;;27.10;99.90;;;;;;4989656;28;20022;-84
2023/07/18 09:46:51;;;;;;;6.25;3.75;;;27.30;99.90;;;;;;4990672;28;20848;-83
2023/07/18 09:49:18;;;;;;;8.15;4.35;;;27.50;99.90;;;;;;4990590;28;20129;-84
2023/07/18 09:51:56;;;;;;;7.68;4.03;;;27.70;99.90;;;;;;4991673;28;20080;-83
2023/07/18 09:54:23;;;;;;;8.77;4.10;;;27.90;99.90;;;;;;4994181;28;20129;-85
2023/07/18 09:56:51;;;;;;;8.85;4.03;;;28.00;99.90;;;;;;4994935;28;20029;-83
2023/07/18 09:59:20;;;;;;;7.57;3.92;;;28.20;99.90;;;;;;4994708;28;21358;-84
2023/07/18 10:01:48;;;;;;;6.45;3.97;;;28.50;99.90;;;;;;4995006;28;20413;-83
2023/07/18 10:04:15;;;;;;;7.78;3.88;;;28.80;99.90;;;;;;4994716;28;20034;-84
2023/07/18 10:06:41;;;;;;;10.70;4.07;;;29.00;99.90;;;;;;4995336;28;20132;-86
2023/07/18 10:09:07;;;;;;;9.68;4.07;;;29.20;99.90;;;;;;4996252;28;20027;-85
2023/07/18 10:11:58;;;;;;;11.48;3.80;;;29.30;99.90;;;;;;4995629;28;20113;-84
2023/07/18 10:14:30;;;;;;;10.30;3.70;;;29.70;99.90;;;;;;4996751;28;20092;-83
2023/07/18 10:17:05;;;;;;;6.70;3.70;;;29.90;99.90;;;;;;4996633;28;20135;-84
2023/07/18 10:19:45;;;;;;;6.85;4.10;;;30.20;99.90;;;;;;4995081;28;20030;-85
2023/07/18 10:22:11;;;;;;;7.22;3.72;;;30.60;98.20;;;;;;4994545;28;20030;-83
2023/07/18 10:24:37;;;;;;;6.75;3.97;;;30.50;98.60;;;;;;4992596;28;20501;-84
2023/07/18 10:27:09;;;;;;;11.43;3.47;;;30.40;97.90;;;;;;4990386;28;20029;-83
2023/07/18 10:29:38;;;;;;;9.40;3.70;;;30.70;97.40;;;;;;4990435;28;20045;-83
2023/07/18 10:32:05;;;;;;;8.95;3.85;;;30.80;97.40;;;;;;4987761;28;20109;-84
2023/07/18 10:34:39;;;;;;;9.45;3.97;;;30.70;96.90;;;;;;4988493;28;20054;-83
2023/07/18 10:37:07;;;;;;;5.25;3.60;;;30.70;98.50;;;;;;4988280;28;20058;-83
2023/07/18 10:39:40;;;;;;;9.85;3.88;;;30.80;96.80;;;;;;4988065;28;20038;-83
2023/07/18 10:42:20;;;;;;;5.57;3.35;;;30.80;97.50;;;;;;4984692;28;20508;-84
2023/07/18 10:44:47;;;;;;;6.50;3.63;;;31.00;97.80;;;;;;4990859;28;20034;-84
2023/07/18 10:47:18;;;;;;;7.05;3.55;;;31.10;97.10;;;;;;4989877;28;20922;-74
2023/07/18 10:49:45;;;;;;;6.63;3.38;;;31.20;94.90;;;;;;4984568;28;20532;-74
2023/07/18 10:52:12;;;;;;;6.45;3.50;;;31.20;97.70;;;;;;4988343;28;20042;-83
2023/07/18 10:54:55;;;;;;;19.67;3.78;;;31.20;96.70;;;;;;4987578;28;20148;-84
2023/07/18 10:57:30;;;;;;;8.40;4.00;;;31.50;95.40;;;;;;4990973;28;20038;-83
2023/07/18 10:59:57;;;;;;;9.57;4.10;;;31.60;95.20;;;;;;4990862;28;20269;-83
2023/07/18 11:02:24;;;;;;;12.63;4.70;;;31.50;95.70;;;;;;4989135;28;20034;-83
2023/07/18 11:04:51;;;;;;;8.15;3.30;;;31.50;94.00;;;;;;4989690;28;20497;-83
2023/07/18 11:07:17;;;;;;;6.72;3.90;;;31.20;95.70;;;;;;4991522;28;20034;-82
2023/07/18 11:09:43;;;;;;;8.13;3.75;;;31.30;94.20;;;;;;4989576;28;20512;-82
2023/07/18 11:12:19;;;;;;;8.30;4.15;;;31.40;94.30;;;;;;4981244;28;20997;-84
2023/07/18 11:14:46;;;;;;;8.10;4.03;;;31.50;95.20;;;;;;4979874;28;21537;-83
2023/07/18 11:17:18;;;;;;;7.95;3.67;;;31.40;94.90;;;;;;4992116;28;20130;-83
2023/07/18 11:19:45;;;;;;;5.80;3.78;;;31.50;94.80;;;;;;4991443;28;20094;-83
2023/07/18 11:22:13;;;;;;;8.45;4.03;;;31.40;96.10;;;;;;4991951;28;20061;-84
2023/07/18 11:24:39;;;;;;;6.47;3.55;;;31.40;95.50;;;;;;4992062;28;20137;-83
2023/07/18 11:27:17;;;;;;;7.13;3.83;;;31.10;95.10;;;;;;4988688;28;20041;-84
2023/07/18 11:30:09;;;;;;;7.22;3.70;;;30.90;95.90;;;;;;4986281;28;20044;-83
2023/07/18 11:32:45;;;;;;;7.57;3.92;;;30.70;96.20;;;;;;4988932;28;20096;-83
2023/07/18 11:35:18;;;;;;;7.25;3.92;;;30.40;96.80;;;;;;4990720;28;20018;-83
2023/07/18 11:37:46;;;;;;;7.88;4.20;;;30.30;96.10;;;;;;4987983;28;20018;-83
2023/07/18 11:40:25;;;;;;;8.32;4.43;;;30.20;96.40;;;;;;4989598;28;20129;-82
2023/07/18 11:42:56;;;;;;;8.23;4.00;;;30.00;96.40;;;;;;4989597;28;20053;-85
2023/07/18 11:45:23;;;;;;;5.43;3.65;;;29.80;96.80;;;;;;4990520;28;20169;-83
2023/07/18 11:47:57;;;;;;;10.30;4.43;;;29.50;98.00;;;;;;4990351;28;20036;-83
2023/07/18 11:50:26;;;;;;;6.30;3.78;;;29.30;97.90;;;;;;4988972;28;20029;-84
2023/07/18 11:52:53;;;;;;;7.57;4.15;;;29.00;98.30;;;;;;4990380;28;20037;-82
2023/07/18 11:55:21;;;;;;;10.05;4.13;;;28.90;98.20;;;;;;4988604;28;20392;-83
2023/07/18 11:57:48;;;;;;;7.57;4.10;;;28.60;98.80;;;;;;4988175;28;20976;-83
2023/07/18 12:00:15;;;;;;;7.45;4.20;;;28.30;99.60;;;;;;4987838;28;20443;-83
2023/07/18 12:02:41;;;;;;;8.52;4.20;;;28.10;99.90;;;;;;4989301;28;20547;-85
2023/07/18 12:05:08;;;;;;;10.80;4.40;;;27.80;99.90;;;;;;4990442;28;20173;-83
2023/07/18 12:07:34;;;;;;;7.40;4.18;;;27.70;99.90;;;;;;4985327;28;20465;-83
2023/07/18 12:10:00;;;;;;;9.63;3.85;;;27.80;99.90;;;;;;4988329;28;20125;-83
2023/07/18 12:12:26;;;;;;;9.93;4.07;;;28.10;99.90;;;;;;4988226;28;20087;-84
2023/07/18 12:14:52;;;;;;;6.30;4.13;;;28.60;99.00;;;;;;4989430;28;20035;-83
2023/07/18 12:17:18;;;;;;;6.65;4.38;;;28.60;98.40;;;;;;4991080;28;20112;-83
2023/07/18 12:19:44;;;;;;;10.52;4.03;;;28.40;99.80;;;;;;4992427;28;20201;-83
2023/07/18 12:22:11;;;;;;;8.90;4.28;;;28.20;99.90;;;;;;4993180;28;20027;-82
2023/07/18 12:24:37;;;;;;;9.40;3.97;;;28.00;99.90;;;;;;4990925;28;20033;-83
2023/07/18 12:27:04;;;;;;;10.10;4.45;;;27.90;99.90;;;;;;4993338;28;20412;-83
2023/07/18 12:29:29;;;;;;;6.93;3.95;;;27.70;99.90;;;;;;4991105;28;20117;-85
2023/07/18 12:31:55;;;;;;;11.15;4.10;;;27.50;99.90;;;;;;4988229;28;20128;-74
2023/07/18 12:34:21;;;;;;;12.40;4.10;;;27.30;99.90;;;;;;4984561;28;20030;-74
2023/07/18 12:36:47;;;;;;;9.00;4.15;;;27.10;99.90;;;;;;4984847;28;20539;-74
2023/07/18 12:39:17;;;;;;;10.30;3.88;;;26.90;99.90;;;;;;4984584;28;20105;-73
2023/07/18 12:41:43;;;;;;;8.18;4.47;;;26.70;99.90;;;;;;4985770;28;20071;-73